Time;durP1;ratioP1;P1;durP2;ratioP2;P2;SDS_P1;SDS_P2;PMS_P1;PMS_P2;Temp;Humidity;BMP_temperature;BMP_pressure;BME280_temperature;BME280_humidity;BME280_pressure;Samples;Min_cycle;Max_cycle;Signal;HPM_P1;HPM_P2
2022/04/19 00:01:32;;;;;;;10.40;6.37;;;9.40;61.50;;;;;;5019127;28;20483;-69
2022/04/19 00:04:00;;;;;;;47.27;28.83;;;9.40;61.60;;;;;;5017420;28;20527;-69
2022/04/19 00:06:28;;;;;;;15.13;9.30;;;9.30;61.50;;;;;;5018524;28;20478;-69
2022/04/19 00:08:56;;;;;;;11.00;6.20;;;9.30;61.40;;;;;;5019141;28;20909;-69
2022/04/19 00:11:24;;;;;;;8.70;5.70;;;9.20;61.50;;;;;;5020183;28;20879;-69
2022/04/19 00:13:52;;;;;;;29.70;18.10;;;9.10;61.50;;;;;;5033738;28;20494;-69
2022/04/19 00:16:20;;;;;;;9.50;6.60;;;9.00;61.70;;;;;;5017984;28;20482;-69
2022/04/19 00:18:49;;;;;;;12.67;8.17;;;9.00;61.90;;;;;;5019219;28;20530;-69
2022/04/19 00:21:18;;;;;;;16.40;10.50;;;9.00;62.00;;;;;;5021187;28;20462;-69
2022/04/19 00:23:47;;;;;;;13.10;8.63;;;9.00;62.00;;;;;;5021002;28;20492;-69
2022/04/19 00:26:15;;;;;;;14.03;8.83;;;8.90;62.10;;;;;;5021770;28;20479;-69
2022/04/19 00:28:43;;;;;;;10.73;6.33;;;8.90;62.20;;;;;;5020198;28;20905;-69
2022/04/19 00:31:11;;;;;;;9.43;5.30;;;8.90;62.30;;;;;;5025157;28;20483;-69
2022/04/19 00:33:44;;;;;;;8.00;4.63;;;8.90;62.40;;;;;;5018721;28;20492;-69
2022/04/19 00:36:14;;;;;;;9.83;6.40;;;9.00;62.50;;;;;;5015983;28;20540;-69
2022/04/19 00:38:42;;;;;;;9.17;5.97;;;9.00;62.60;;;;;;5011370;28;20473;-69
2022/04/19 00:41:11;;;;;;;20.77;12.77;;;9.10;62.60;;;;;;5023941;28;20468;-69
2022/04/19 00:43:40;;;;;;;113.57;59.33;;;9.10;62.50;;;;;;5019425;28;20484;-69
2022/04/19 00:46:08;;;;;;;25.33;15.77;;;9.10;62.30;;;;;;5026227;28;21392;-69
2022/04/19 00:48:36;;;;;;;11.10;6.93;;;9.00;62.30;;;;;;5023365;28;20538;-69
2022/04/19 00:51:06;;;;;;;24.27;13.27;;;8.90;62.20;;;;;;5020585;28;20464;-69
2022/04/19 00:53:36;;;;;;;20.00;10.80;;;8.80;62.40;;;;;;5021207;28;20491;-69
2022/04/19 00:56:05;;;;;;;22.73;11.67;;;8.70;62.40;;;;;;5020888;28;20464;-69
2022/04/19 00:58:33;;;;;;;18.50;9.80;;;8.70;62.40;;;;;;5020836;28;20807;-69
2022/04/19 01:01:01;;;;;;;16.43;9.53;;;8.60;62.50;;;;;;5038286;28;20996;-70
2022/04/19 01:03:30;;;;;;;11.93;7.00;;;8.60;62.70;;;;;;5019078;28;20567;-69
2022/04/19 01:06:03;;;;;;;10.20;5.33;;;8.50;62.80;;;;;;5017570;28;20468;-69
2022/04/19 01:08:31;;;;;;;7.37;4.40;;;8.50;62.90;;;;;;5024096;28;20491;-69
2022/04/19 01:14:01;;;;;;;87.33;41.57;;;8.50;63.00;;;;;;5016109;28;20480;-69
2022/04/19 01:16:30;;;;;;;48.07;22.97;;;8.50;62.90;;;;;;5023588;28;20487;-69
2022/04/19 01:19:01;;;;;;;37.03;19.30;;;8.50;63.00;;;;;;5028799;28;20465;-69
2022/04/19 01:21:43;;;;;;;34.60;16.87;;;8.40;63.00;;;;;;5023156;28;20499;-68
2022/04/19 01:24:15;;;;;;;36.03;17.33;;;8.40;63.00;;;;;;5013400;28;20476;-69
2022/04/19 01:26:43;;;;;;;27.80;14.13;;;8.30;63.00;;;;;;5015455;28;20828;-69
2022/04/19 01:29:12;;;;;;;19.53;10.47;;;8.30;63.10;;;;;;5015301;28;20991;-69
2022/04/19 01:31:43;;;;;;;16.40;9.10;;;8.30;63.20;;;;;;5030597;28;20591;-69
2022/04/19 01:34:12;;;;;;;14.63;8.27;;;8.20;63.40;;;;;;5016547;28;21125;-68
2022/04/19 01:36:41;;;;;;;15.20;6.47;;;8.30;63.40;;;;;;5012100;28;20908;-68
2022/04/19 01:39:11;;;;;;;13.13;6.57;;;8.30;63.50;;;;;;5031226;28;20484;-68
2022/04/19 01:41:42;;;;;;;11.73;6.80;;;8.40;63.50;;;;;;5025393;28;20472;-68
2022/04/19 01:44:10;;;;;;;13.33;7.77;;;8.30;63.40;;;;;;5027185;28;21028;-68
2022/04/19 01:46:39;;;;;;;12.57;8.10;;;8.30;63.40;;;;;;5026616;28;20523;-68
2022/04/19 01:49:07;;;;;;;18.47;9.80;;;8.30;63.40;;;;;;5011781;28;20602;-68
2022/04/19 01:51:37;;;;;;;15.00;9.30;;;8.30;63.50;;;;;;5022334;28;20473;-68
2022/04/19 01:54:11;;;;;;;12.57;7.83;;;8.30;63.40;;;;;;5028141;28;21265;-68
2022/04/19 01:56:39;;;;;;;10.27;6.15;;;8.20;63.40;;;;;;5026298;28;21039;-68
2022/04/19 01:59:20;;;;;;;19.98;11.02;;;8.20;63.40;;;;;;5028558;28;20293;-68
2022/04/19 02:02:14;;;;;;;25.30;14.25;;;8.10;63.40;;;;;;4997943;28;20249;-68
2022/04/19 02:04:42;;;;;;;20.30;11.60;;;8.00;63.40;;;;;;5032127;28;20355;-68
2022/04/19 02:07:11;;;;;;;13.85;7.65;;;7.90;63.40;;;;;;5016796;28;20477;-68
2022/04/19 02:09:47;;;;;;;13.27;8.00;;;7.80;63.60;;;;;;5023733;28;20243;-68
2022/04/19 02:12:17;;;;;;;33.65;19.08;;;7.70;63.60;;;;;;5031834;28;20674;-68
2022/04/19 02:15:02;;;;;;;48.38;28.25;;;7.70;63.70;;;;;;5032253;28;20201;-68
2022/04/19 02:17:30;;;;;;;21.15;13.50;;;7.60;63.90;;;;;;5014635;28;20699;-68
2022/04/19 02:20:01;;;;;;;26.02;15.38;;;7.60;64.10;;;;;;5015850;28;20324;-68
2022/04/19 02:22:29;;;;;;;17.15;10.25;;;7.70;64.30;;;;;;5022590;28;20205;-68
2022/04/19 02:24:59;;;;;;;12.70;6.82;;;7.80;64.40;;;;;;5022523;28;20706;-68
2022/04/19 02:27:31;;;;;;;17.30;10.43;;;7.80;64.40;;;;;;5022959;28;20744;-68
2022/04/19 02:30:03;;;;;;;58.60;30.33;;;7.90;64.40;;;;;;5032888;28;20453;-68
2022/04/19 02:32:31;;;;;;;36.00;18.80;;;7.90;64.40;;;;;;5020673;28;20342;-68
2022/04/19 02:35:00;;;;;;;33.15;17.25;;;8.00;64.20;;;;;;5019879;28;20459;-68
2022/04/19 02:37:29;;;;;;;25.08;13.88;;;7.90;64.20;;;;;;5033287;28;20206;-68
2022/04/19 02:39:58;;;;;;;28.08;15.15;;;7.90;64.20;;;;;;5021497;28;20213;-68
2022/04/19 02:42:26;;;;;;;13.13;8.00;;;7.90;64.20;;;;;;5016692;28;20495;-68
2022/04/19 02:44:56;;;;;;;30.40;16.07;;;7.90;64.20;;;;;;5028452;28;20267;-68
2022/04/19 02:47:24;;;;;;;14.00;7.45;;;7.90;64.10;;;;;;5016614;28;20478;-68
2022/04/19 02:49:58;;;;;;;27.75;14.35;;;7.80;64.10;;;;;;5032146;28;20296;-68
2022/04/19 02:52:26;;;;;;;19.43;10.50;;;7.70;64.10;;;;;;5033474;28;20210;-68
2022/04/19 02:54:54;;;;;;;8.40;5.32;;;7.60;64.10;;;;;;5012963;28;20467;-68
2022/04/19 02:57:24;;;;;;;18.30;9.95;;;7.60;64.30;;;;;;5028996;28;20843;-68
2022/04/19 02:59:53;;;;;;;25.90;13.30;;;7.60;64.40;;;;;;5013683;28;20197;-69
2022/04/19 03:02:21;;;;;;;99.57;43.30;;;7.60;64.40;;;;;;5014152;28;20482;-68
2022/04/19 03:04:49;;;;;;;28.50;13.75;;;7.60;64.40;;;;;;5016897;28;20205;-68
2022/04/19 03:07:17;;;;;;;33.70;17.27;;;7.60;64.40;;;;;;5033204;28;20233;-68
2022/04/19 03:09:46;;;;;;;20.00;10.52;;;7.50;64.40;;;;;;5016168;28;20263;-68
2022/04/19 03:12:14;;;;;;;23.25;12.18;;;7.50;64.50;;;;;;5020958;28;20220;-68
2022/04/19 03:14:57;;;;;;;18.95;10.65;;;7.50;64.60;;;;;;5032455;28;20221;-68
2022/04/19 03:17:25;;;;;;;16.80;7.38;;;7.40;64.70;;;;;;5016935;28;20761;-69
2022/04/19 03:19:59;;;;;;;10.00;6.00;;;7.40;64.80;;;;;;5017652;28;20689;-68
2022/04/19 03:27:41;;;;;;;8.13;5.57;;;7.40;64.90;;;;;;5033059;28;20205;-68
2022/04/19 03:28:00;;;;;;;10.05;6.28;;;7.50;65.00;;;;;;5017984;28;20212;-68
2022/04/19 03:30:29;;;;;;;10.13;6.17;;;7.50;65.10;;;;;;5033324;28;20696;-68
2022/04/19 03:32:59;;;;;;;8.65;5.80;;;7.60;65.10;;;;;;5034883;28;20563;-68
2022/04/19 03:35:29;;;;;;;8.27;4.70;;;7.60;65.10;;;;;;5020091;28;20197;-68
2022/04/19 03:37:56;;;;;;;9.40;4.80;;;7.70;65.10;;;;;;5035126;28;20205;-68
2022/04/19 03:40:25;;;;;;;9.63;5.32;;;7.60;65.00;;;;;;5023353;28;20823;-68
2022/04/19 03:42:54;;;;;;;12.90;6.53;;;7.60;65.00;;;;;;5035295;28;20992;-68
2022/04/19 03:45:24;;;;;;;18.73;9.20;;;7.70;65.00;;;;;;5021056;28;20493;-69
2022/04/19 03:47:53;;;;;;;11.90;6.60;;;7.70;65.00;;;;;;5036172;28;21169;-68
2022/04/19 03:50:21;;;;;;;9.80;6.07;;;7.70;65.00;;;;;;5035785;28;20575;-69
2022/04/19 03:52:50;;;;;;;13.03;7.67;;;7.70;65.00;;;;;;5017578;28;20221;-68
2022/04/19 03:55:19;;;;;;;11.43;7.47;;;7.70;65.00;;;;;;5017848;28;20481;-68
2022/04/19 03:57:47;;;;;;;18.50;9.03;;;7.70;65.00;;;;;;5014630;28;20503;-68
2022/04/19 04:00:16;;;;;;;16.93;9.47;;;7.70;65.00;;;;;;5022814;28;20818;-68
2022/04/19 04:02:45;;;;;;;16.20;9.67;;;7.60;65.00;;;;;;5034989;28;20490;-68
2022/04/19 04:05:27;;;;;;;11.13;6.70;;;7.60;65.10;;;;;;5015088;28;20461;-68
2022/04/19 04:07:57;;;;;;;12.88;7.15;;;7.60;65.10;;;;;;5033549;28;20906;-68
2022/04/19 04:10:28;;;;;;;13.37;7.70;;;7.60;65.10;;;;;;5019632;28;20835;-68
2022/04/19 04:12:58;;;;;;;10.90;6.38;;;7.60;65.20;;;;;;5033971;28;20489;-68
2022/04/19 04:15:27;;;;;;;8.68;5.80;;;7.60;65.20;;;;;;5015349;28;20244;-68
2022/04/19 04:17:55;;;;;;;9.10;5.50;;;7.60;65.10;;;;;;5019926;28;20545;-69
2022/04/19 04:20:23;;;;;;;8.80;4.90;;;7.60;65.10;;;;;;5018337;28;20459;-68
2022/04/19 04:22:52;;;;;;;12.13;6.17;;;7.60;65.20;;;;;;5022276;28;20508;-69
2022/04/19 04:25:21;;;;;;;9.80;5.67;;;7.60;65.20;;;;;;5034522;28;20464;-69
2022/04/19 04:27:49;;;;;;;9.70;5.65;;;7.50;65.10;;;;;;5035630;28;20469;-68
2022/04/19 04:30:17;;;;;;;8.73;5.68;;;7.50;65.20;;;;;;5031709;28;20519;-69
2022/04/19 04:32:54;;;;;;;9.40;5.88;;;7.50;65.20;;;;;;5031504;28;20249;-69
2022/04/19 04:35:22;;;;;;;11.35;5.82;;;7.40;65.20;;;;;;5022523;28;20229;-69
2022/04/19 04:37:52;;;;;;;8.27;5.50;;;7.40;65.20;;;;;;5034757;28;20749;-69
2022/04/19 04:40:23;;;;;;;12.55;5.70;;;7.30;65.30;;;;;;5014995;28;20206;-69
2022/04/19 04:42:58;;;;;;;7.90;5.40;;;7.30;65.40;;;;;;5001741;28;20239;-69
2022/04/19 04:45:26;;;;;;;9.27;5.38;;;7.20;65.40;;;;;;5015249;28;21097;-69
2022/04/19 04:50:42;;;;;;;20.70;6.43;;;7.10;65.50;;;;;;5021687;28;20228;-69
2022/04/19 04:53:13;;;;;;;8.90;5.60;;;7.10;65.60;;;;;;5034846;28;20619;-69
2022/04/19 04:55:49;;;;;;;10.50;6.43;;;7.00;65.60;;;;;;5030498;28;20238;-69
2022/04/19 04:58:25;;;;;;;11.30;6.82;;;7.00;65.90;;;;;;5024730;28;20300;-69
2022/04/19 05:00:53;;;;;;;13.00;8.47;;;7.00;66.10;;;;;;5029345;28;20229;-69
2022/04/19 05:03:24;;;;;;;12.88;8.88;;;7.30;67.30;;;;;;5011223;28;20527;-69
2022/04/19 05:05:52;;;;;;;11.97;8.93;;;8.00;68.10;;;;;;5031366;28;20725;-69
2022/04/19 05:08:21;;;;;;;10.60;7.40;;;8.80;67.50;;;;;;5023962;28;21107;-69
2022/04/19 05:10:51;;;;;;;15.90;8.65;;;9.60;66.60;;;;;;5012094;28;20548;-69
2022/04/19 05:13:22;;;;;;;10.13;6.77;;;10.20;65.80;;;;;;5032496;28;20231;-69
2022/04/19 05:15:50;;;;;;;9.50;5.53;;;10.80;65.00;;;;;;5017125;28;20853;-69
2022/04/19 05:18:19;;;;;;;8.90;5.67;;;11.30;64.50;;;;;;5034708;28;20513;-69
2022/04/19 05:20:49;;;;;;;8.03;5.60;;;11.90;63.70;;;;;;5028433;28;20461;-69
2022/04/19 05:23:18;;;;;;;11.30;6.10;;;12.50;63.10;;;;;;5031321;28;21185;-69
2022/04/19 05:25:48;;;;;;;9.60;6.27;;;13.10;62.70;;;;;;5030682;28;20464;-69
2022/04/19 05:28:16;;;;;;;13.80;6.33;;;13.80;61.90;;;;;;5014115;28;20483;-69
2022/04/19 05:30:44;;;;;;;15.50;6.90;;;14.40;61.20;;;;;;5029419;28;20888;-69
2022/04/19 05:33:12;;;;;;;14.57;8.60;;;15.00;60.30;;;;;;5015296;28;20568;-70
2022/04/19 05:35:40;;;;;;;12.57;9.27;;;15.50;59.20;;;;;;5031195;28;20504;-69
2022/04/19 05:38:08;;;;;;;12.03;9.23;;;16.00;58.60;;;;;;5018893;28;20474;-69
2022/04/19 05:40:36;;;;;;;10.83;7.93;;;16.60;58.10;;;;;;5034721;28;20465;-69
2022/04/19 05:43:06;;;;;;;10.77;6.33;;;17.30;57.10;;;;;;5016654;28;20484;-69
2022/04/19 05:45:35;;;;;;;11.50;6.20;;;18.00;55.80;;;;;;5030648;28;20455;-70
2022/04/19 05:48:04;;;;;;;10.50;6.97;;;18.10;53.30;;;;;;5031755;28;20912;-69
2022/04/19 05:50:33;;;;;;;10.80;7.13;;;17.20;52.10;;;;;;5021059;28;20455;-70
2022/04/19 05:53:01;;;;;;;11.73;6.43;;;15.90;52.10;;;;;;5016493;28;20567;-69
2022/04/19 05:55:29;;;;;;;10.80;6.00;;;14.70;52.50;;;;;;5034669;28;20478;-69
2022/04/19 05:57:57;;;;;;;10.07;6.77;;;13.60;53.20;;;;;;5032692;28;20456;-69
2022/04/19 06:00:26;;;;;;;9.77;6.70;;;12.80;53.90;;;;;;5026796;28;20492;-69
2022/04/19 06:05:45;;;;;;;8.20;6.00;;;11.50;55.30;;;;;;5014055;28;20833;-68
2022/04/19 06:08:14;;;;;;;10.10;6.10;;;11.00;56.00;;;;;;5018581;28;20462;-68
2022/04/19 06:10:43;;;;;;;7.13;5.53;;;10.60;56.50;;;;;;5031794;28;20464;-68
2022/04/19 06:13:12;;;;;;;11.53;6.23;;;10.40;57.10;;;;;;5031863;28;20580;-68
2022/04/19 06:15:41;;;;;;;10.17;5.60;;;10.10;57.60;;;;;;5031334;28;20467;-69
2022/04/19 06:18:15;;;;;;;7.87;5.77;;;10.00;58.10;;;;;;5037649;28;21046;-68
2022/04/19 06:20:53;;;;;;;7.00;4.60;;;9.90;58.50;;;;;;5016431;28;20463;-68
2022/04/19 06:23:23;;;;;;;9.10;4.93;;;9.80;58.90;;;;;;5045267;28;20478;-69
2022/04/19 06:25:51;;;;;;;9.40;5.70;;;9.70;59.20;;;;;;5021553;28;20448;-69
2022/04/19 06:28:22;;;;;;;8.03;5.30;;;9.70;59.40;;;;;;5035248;28;21076;-70
2022/04/19 06:31:27;;;;;;;10.37;5.10;;;9.60;59.70;;;;;;5018186;28;20561;-68
2022/04/19 06:34:08;;;;;;;10.03;5.50;;;9.50;60.10;;;;;;5038589;28;20479;-68
2022/04/19 06:36:56;;;;;;;8.17;5.23;;;9.50;60.60;;;;;;5012395;28;20526;-68
2022/04/19 06:39:24;;;;;;;8.47;4.83;;;9.50;60.80;;;;;;5016467;28;20545;-70
2022/04/19 06:41:54;;;;;;;7.83;5.27;;;9.50;61.00;;;;;;5032510;28;20502;-69
2022/04/19 06:44:23;;;;;;;9.87;5.20;;;9.60;61.20;;;;;;5017335;28;20492;-69
2022/04/19 06:47:02;;;;;;;7.40;4.73;;;9.60;61.40;;;;;;5032689;28;20475;-69
2022/04/19 06:49:32;;;;;;;7.70;4.80;;;9.70;61.60;;;;;;5015023;28;20519;-69
2022/04/19 06:52:00;;;;;;;8.10;5.10;;;9.70;61.70;;;;;;5032871;28;20822;-68
2022/04/19 06:54:28;;;;;;;8.13;4.80;;;9.80;61.80;;;;;;5020303;28;20575;-69
2022/04/19 06:56:59;;;;;;;8.77;4.87;;;9.80;61.90;;;;;;5035506;28;20469;-69
2022/04/19 06:59:29;;;;;;;8.47;4.80;;;9.90;62.10;;;;;;5015650;28;20464;-69
2022/04/19 07:01:57;;;;;;;15.90;4.87;;;9.90;62.10;;;;;;5017916;28;20476;-69
2022/04/19 07:04:35;;;;;;;8.63;4.67;;;10.00;62.10;;;;;;5021162;28;20472;-69
2022/04/19 07:07:06;;;;;;;8.07;4.00;;;10.10;62.20;;;;;;5035111;28;20456;-69
2022/04/19 07:09:34;;;;;;;6.90;4.80;;;10.10;62.20;;;;;;5018265;28;20963;-69
2022/04/19 07:12:02;;;;;;;8.83;4.40;;;10.20;62.30;;;;;;5033814;28;20978;-69
2022/04/19 07:14:36;;;;;;;7.50;5.10;;;10.20;62.30;;;;;;5019971;28;20481;-69
2022/04/19 07:17:27;;;;;;;8.90;5.10;;;10.20;62.40;;;;;;5010318;28;20562;-69
2022/04/19 07:28:17;;;;;;;8.53;5.00;;;10.40;62.60;;;;;;5034187;28;20462;-69
2022/04/19 07:30:53;;;;;;;13.40;5.47;;;10.40;62.70;;;;;;5029697;28;20484;-69
2022/04/19 07:33:22;;;;;;;7.90;5.10;;;10.40;62.90;;;;;;5021569;28;20545;-69
2022/04/19 07:35:54;;;;;;;9.03;5.13;;;10.40;62.90;;;;;;5021513;28;20535;-69
2022/04/19 07:38:22;;;;;;;12.00;5.53;;;10.50;63.00;;;;;;5025881;28;20484;-69
2022/04/19 07:41:09;;;;;;;8.20;5.13;;;10.50;63.10;;;;;;5021548;28;20525;-69
2022/04/19 07:43:43;;;;;;;12.63;5.27;;;10.60;63.10;;;;;;5014166;28;20483;-69
2022/04/19 07:46:18;;;;;;;7.83;4.60;;;10.70;63.20;;;;;;5011737;28;20477;-69
2022/04/19 07:48:47;;;;;;;8.90;5.30;;;10.70;63.10;;;;;;5030060;28;20472;-69
2022/04/19 07:51:16;;;;;;;9.23;5.20;;;10.80;63.10;;;;;;5033208;28;20455;-69
2022/04/19 07:53:45;;;;;;;8.30;4.60;;;10.80;63.00;;;;;;5012858;28;20469;-69
2022/04/19 07:56:18;;;;;;;9.77;5.20;;;10.90;63.10;;;;;;5030732;28;20499;-69
2022/04/19 07:58:47;;;;;;;8.20;4.80;;;10.90;63.10;;;;;;5018631;28;20453;-69
2022/04/19 08:01:16;;;;;;;9.93;4.97;;;11.00;63.10;;;;;;5032145;28;20915;-69
2022/04/19 08:03:51;;;;;;;8.67;4.50;;;11.00;63.10;;;;;;5017746;28;20485;-69
2022/04/19 08:06:20;;;;;;;7.47;4.83;;;11.10;63.10;;;;;;5017073;28;20996;-69
2022/04/19 08:08:48;;;;;;;10.93;4.63;;;11.20;63.00;;;;;;5032883;28;20468;-69
2022/04/19 08:11:16;;;;;;;10.13;5.53;;;11.20;63.00;;;;;;5031868;28;20447;-69
2022/04/19 08:13:45;;;;;;;9.37;5.23;;;11.30;62.90;;;;;;5030806;28;20480;-69
2022/04/19 08:16:20;;;;;;;9.60;4.33;;;11.30;62.90;;;;;;5013717;28;20484;-70
2022/04/19 08:18:48;;;;;;;11.03;5.50;;;11.40;62.90;;;;;;5032703;28;20491;-69
2022/04/19 08:21:17;;;;;;;8.87;5.10;;;11.40;62.90;;;;;;5038215;28;20447;-69
2022/04/19 08:23:47;;;;;;;6.80;4.13;;;11.50;62.80;;;;;;5033498;28;20484;-69
2022/04/19 08:26:18;;;;;;;8.23;5.30;;;11.60;62.80;;;;;;5017458;28;20459;-69
2022/04/19 08:28:47;;;;;;;10.73;6.80;;;11.60;62.60;;;;;;5034439;28;20524;-69
2022/04/19 08:31:15;;;;;;;14.90;8.00;;;11.70;62.50;;;;;;5034146;28;20511;-69
2022/04/19 08:33:43;;;;;;;10.77;6.40;;;11.80;62.30;;;;;;5034006;28;20489;-70
2022/04/19 08:36:15;;;;;;;8.10;4.93;;;11.90;61.90;;;;;;5040168;28;20489;-69
2022/04/19 08:38:46;;;;;;;10.30;5.30;;;11.90;61.50;;;;;;5032829;28;20457;-69
2022/04/19 08:41:17;;;;;;;10.33;7.03;;;12.00;61.50;;;;;;5017995;28;20445;-69
2022/04/19 08:43:46;;;;;;;13.47;6.97;;;12.10;61.40;;;;;;5031197;28;20591;-69
2022/04/19 08:46:14;;;;;;;14.73;10.50;;;12.20;60.70;;;;;;5020450;28;20480;-69
2022/04/19 08:48:44;;;;;;;13.77;8.93;;;12.30;59.60;;;;;;5019412;28;20460;-70
2022/04/19 08:51:13;;;;;;;13.23;9.17;;;12.40;59.50;;;;;;5016056;28;20467;-70
2022/04/19 08:59:28;;;;;;;13.27;6.53;;;12.70;59.10;;;;;;4957907;28;20471;-70
2022/04/19 09:01:55;;;;;;;10.90;5.60;;;12.80;58.90;;;;;;5018934;28;21206;-70
2022/04/19 09:04:24;;;;;;;11.03;6.20;;;13.00;58.80;;;;;;5018489;28;20571;-69
2022/04/19 09:06:54;;;;;;;11.93;5.60;;;13.00;58.70;;;;;;5019364;28;20444;-70
2022/04/19 09:09:24;;;;;;;10.77;6.10;;;13.10;58.70;;;;;;5023427;28;21043;-69
2022/04/19 09:11:55;;;;;;;9.97;5.00;;;13.20;58.60;;;;;;5015958;28;20463;-69
2022/04/19 09:14:23;;;;;;;11.67;6.00;;;13.30;58.30;;;;;;5022913;28;20488;-69
2022/04/19 09:17:03;;;;;;;10.57;5.97;;;13.40;58.20;;;;;;5023444;28;20496;-69
2022/04/19 09:19:31;;;;;;;9.17;5.77;;;13.40;58.00;;;;;;5024693;28;20506;-70
2022/04/19 09:22:00;;;;;;;11.53;6.70;;;13.40;58.00;;;;;;5019967;28;20893;-70
2022/04/19 09:24:28;;;;;;;10.13;6.10;;;13.50;57.50;;;;;;5021786;28;20492;-69
2022/04/19 09:26:58;;;;;;;10.73;6.00;;;13.50;57.60;;;;;;5022016;28;20465;-69
2022/04/19 09:29:27;;;;;;;12.00;6.90;;;13.50;57.30;;;;;;5020125;28;20471;-70
2022/04/19 09:31:58;;;;;;;11.67;6.07;;;13.60;57.40;;;;;;5017901;28;20491;-70
2022/04/19 09:34:31;;;;;;;9.30;6.03;;;13.60;57.00;;;;;;5016399;28;20559;-71
2022/04/19 09:37:07;;;;;;;11.40;6.37;;;13.70;57.10;;;;;;5017676;28;21016;-69
2022/04/19 09:39:37;;;;;;;10.50;6.47;;;13.70;56.70;;;;;;5015624;28;20483;-69
2022/04/19 09:42:08;;;;;;;9.50;5.80;;;13.70;56.60;;;;;;5017493;28;20508;-69
2022/04/19 09:44:41;;;;;;;11.80;6.83;;;13.80;56.40;;;;;;5014108;28;20472;-69
2022/04/19 09:47:11;;;;;;;11.40;7.00;;;13.80;55.80;;;;;;5017444;28;20825;-70
2022/04/19 09:49:47;;;;;;;12.63;5.73;;;13.90;56.20;;;;;;5018447;28;21219;-70
2022/04/19 09:52:38;;;;;;;8.93;5.97;;;13.90;55.80;;;;;;5018466;28;20462;-69
2022/04/19 09:55:08;;;;;;;12.13;7.23;;;13.90;54.40;;;;;;5018138;28;20525;-70
2022/04/19 09:57:38;;;;;;;8.60;5.60;;;13.90;55.50;;;;;;5017572;28;20480;-70
2022/04/19 10:00:08;;;;;;;9.00;5.50;;;14.10;55.60;;;;;;5018587;28;20514;-70
2022/04/19 10:08:14;;;;;;;12.40;5.03;;;14.20;54.90;;;;;;5018226;28;20464;-70
2022/04/19 10:10:42;;;;;;;9.20;5.83;;;14.30;54.90;;;;;;5019404;28;20466;-69
2022/04/19 10:13:13;;;;;;;8.80;4.70;;;14.30;54.70;;;;;;5008026;28;20494;-70
2022/04/19 10:15:42;;;;;;;10.13;5.67;;;14.40;54.50;;;;;;4999795;28;20483;-70
2022/04/19 10:18:11;;;;;;;10.63;5.70;;;14.30;53.80;;;;;;5019829;28;20485;-69
2022/04/19 10:20:46;;;;;;;9.47;5.27;;;14.30;53.90;;;;;;5022863;28;20995;-69
2022/04/19 10:23:15;;;;;;;9.73;5.10;;;14.40;54.00;;;;;;5020603;28;20476;-69
2022/04/19 10:25:44;;;;;;;11.40;6.13;;;14.40;53.40;;;;;;5021674;28;20453;-70
2022/04/19 10:28:16;;;;;;;10.30;5.97;;;14.50;53.50;;;;;;5016975;28;20539;-70
2022/04/19 10:30:52;;;;;;;10.47;4.80;;;14.60;53.10;;;;;;5017762;28;21208;-70
2022/04/19 10:33:49;;;;;;;9.60;5.50;;;14.60;53.00;;;;;;5015175;28;20572;-70
2022/04/19 10:36:23;;;;;;;7.60;4.23;;;14.60;52.90;;;;;;5017182;28;20510;-70
2022/04/19 10:39:33;;;;;;;11.43;5.47;;;14.60;52.80;;;;;;5016478;28;20500;-70
2022/04/19 10:42:03;;;;;;;10.00;4.90;;;14.70;52.30;;;;;;5001068;28;20473;-70
2022/04/19 10:44:48;;;;;;;10.50;5.67;;;14.70;52.30;;;;;;5016346;28;20460;-70
2022/04/19 10:47:18;;;;;;;8.50;5.00;;;14.80;52.30;;;;;;5018248;28;20470;-70
2022/04/19 10:50:02;;;;;;;10.10;4.60;;;14.90;52.10;;;;;;5019449;28;20450;-70
2022/04/19 10:52:50;;;;;;;8.67;5.73;;;14.90;51.70;;;;;;5020855;28;20475;-69
2022/04/19 10:55:23;;;;;;;7.80;4.60;;;14.90;51.40;;;;;;5022533;28;20470;-69
2022/04/19 10:58:09;;;;;;;6.90;4.63;;;15.00;51.60;;;;;;5015272;28;20497;-69
2022/04/19 11:00:45;;;;;;;7.73;4.37;;;15.10;51.70;;;;;;5016361;28;20482;-70
2022/04/19 11:03:49;;;;;;;8.67;3.87;;;15.10;51.40;;;;;;5021582;28;20542;-68
2022/04/19 11:06:32;;;;;;;10.83;2.90;;;15.10;50.90;;;;;;5019164;28;20467;-69
2022/04/19 11:09:15;;;;;;;6.07;3.30;;;15.10;50.90;;;;;;5015222;28;20448;-69
2022/04/19 11:11:51;;;;;;;6.03;3.13;;;15.20;50.90;;;;;;5015672;28;20467;-69
2022/04/19 11:14:23;;;;;;;6.40;3.37;;;15.20;51.10;;;;;;5014679;28;20587;-69
2022/04/19 11:16:56;;;;;;;9.10;3.70;;;15.20;51.10;;;;;;5012857;28;20483;-69
2022/04/19 11:19:25;;;;;;;6.90;3.80;;;15.20;51.00;;;;;;5022492;28;20481;-69
2022/04/19 11:21:56;;;;;;;5.37;2.77;;;15.30;50.90;;;;;;5019942;28;20547;-70
2022/04/19 11:25:02;;;;;;;6.53;2.87;;;15.30;50.80;;;;;;5018039;28;20474;-70
2022/04/19 11:28:09;;;;;;;6.00;2.43;;;15.40;50.40;;;;;;5021207;28;20471;-69
2022/04/19 11:30:38;;;;;;;6.10;2.83;;;15.30;50.90;;;;;;5018463;28;20473;-68
2022/04/19 11:33:08;;;;;;;6.50;2.90;;;15.40;51.20;;;;;;5012225;28;20476;-68
2022/04/19 11:35:36;;;;;;;5.90;3.07;;;15.40;51.20;;;;;;5018361;28;20459;-70
2022/04/19 11:38:08;;;;;;;6.00;3.23;;;15.50;51.20;;;;;;5020161;28;20484;-70
2022/04/19 11:49:09;;;;;;;9.70;4.63;;;15.70;50.90;;;;;;5023549;28;20452;-70
2022/04/19 11:51:37;;;;;;;4.90;2.50;;;15.70;50.70;;;;;;5022165;28;20451;-69
2022/04/19 11:54:07;;;;;;;6.80;2.43;;;15.80;50.80;;;;;;5020433;28;21194;-69
2022/04/19 11:56:34;;;;;;;7.43;3.13;;;15.90;50.80;;;;;;5023183;28;20509;-70
2022/04/19 11:59:03;;;;;;;6.37;2.90;;;15.90;50.40;;;;;;5025413;28;20567;-69
2022/04/19 12:01:32;;;;;;;13.33;7.10;;;15.90;50.20;;;;;;5020635;28;20549;-69
2022/04/19 12:04:12;;;;;;;7.70;3.60;;;16.00;50.00;;;;;;5017789;28;21039;-70
2022/04/19 12:06:40;;;;;;;7.10;3.67;;;16.10;50.30;;;;;;5020395;28;20463;-69
2022/04/19 12:09:13;;;;;;;13.97;3.90;;;16.20;49.60;;;;;;5017853;28;20461;-69
2022/04/19 12:11:42;;;;;;;4.93;2.30;;;16.20;50.00;;;;;;5019883;28;20980;-69
2022/04/19 12:14:10;;;;;;;7.90;3.00;;;16.30;50.00;;;;;;5017275;28;20485;-69
2022/04/19 12:16:39;;;;;;;6.93;2.80;;;16.40;49.80;;;;;;5023463;28;20510;-69
2022/04/19 12:19:12;;;;;;;6.17;3.03;;;16.50;50.00;;;;;;5026796;28;20471;-69
2022/04/19 12:21:42;;;;;;;11.60;3.80;;;16.50;49.60;;;;;;5017138;28;20456;-69
2022/04/19 12:24:21;;;;;;;11.53;5.40;;;16.50;49.60;;;;;;5019332;28;20494;-70
2022/04/19 12:26:51;;;;;;;8.90;3.60;;;16.50;49.60;;;;;;5024128;28;20451;-69
2022/04/19 12:29:19;;;;;;;5.20;2.37;;;16.50;49.60;;;;;;5023350;28;20484;-69
2022/04/19 12:31:56;;;;;;;9.73;3.47;;;16.50;49.40;;;;;;5020687;28;20472;-70
2022/04/19 12:34:32;;;;;;;6.43;2.40;;;16.60;49.40;;;;;;5017502;28;20487;-69
2022/04/19 12:37:07;;;;;;;7.30;3.70;;;16.60;49.50;;;;;;5018408;28;20464;-68
2022/04/19 12:39:36;;;;;;;7.13;3.07;;;16.60;49.50;;;;;;5019203;28;20847;-70
2022/04/19 12:42:08;;;;;;;7.33;3.90;;;16.70;49.60;;;;;;5017833;28;20464;-70
2022/04/19 12:44:37;;;;;;;5.33;2.70;;;16.70;49.50;;;;;;5018008;28;20491;-70
2022/04/19 12:47:11;;;;;;;6.57;2.67;;;16.80;49.50;;;;;;5020141;28;20472;-71
2022/04/19 12:49:44;;;;;;;6.40;3.60;;;16.80;49.30;;;;;;5016637;28;20452;-69
2022/04/19 12:52:15;;;;;;;9.03;2.70;;;16.90;49.20;;;;;;5020158;28;20496;-70
2022/04/19 12:54:47;;;;;;;8.57;3.20;;;16.90;49.10;;;;;;5024953;28;20516;-70
2022/04/19 12:57:18;;;;;;;6.30;2.63;;;16.80;48.70;;;;;;5020291;28;20485;-70
2022/04/19 12:59:47;;;;;;;6.20;3.03;;;16.90;49.00;;;;;;5017956;28;20490;-70
2022/04/19 13:02:16;;;;;;;4.73;2.50;;;16.90;49.10;;;;;;5018016;28;20494;-70
2022/04/19 13:04:45;;;;;;;7.60;3.57;;;17.00;49.40;;;;;;5018760;28;20461;-69
2022/04/19 13:12:45;;;;;;;5.70;2.00;;;17.10;49.40;;;;;;5012452;28;20480;-70
2022/04/19 13:15:13;;;;;;;6.20;2.50;;;17.10;49.30;;;;;;5012596;28;20476;-70
2022/04/19 13:17:42;;;;;;;8.17;3.47;;;17.20;49.10;;;;;;5018477;28;20464;-71
2022/04/19 13:20:11;;;;;;;10.17;4.10;;;17.20;49.10;;;;;;5021908;28;20551;-70
2022/04/19 13:22:41;;;;;;;8.03;3.20;;;17.20;49.00;;;;;;5018938;28;20479;-70
2022/04/19 13:25:09;;;;;;;9.23;3.50;;;17.20;49.00;;;;;;5016026;28;20469;-70
2022/04/19 13:27:37;;;;;;;6.90;2.73;;;17.20;48.90;;;;;;5018056;28;20451;-70
2022/04/19 13:30:08;;;;;;;5.93;2.63;;;17.20;49.10;;;;;;5014819;28;20461;-71
2022/04/19 13:32:36;;;;;;;15.37;3.33;;;17.30;49.10;;;;;;5017479;28;20467;-70
2022/04/19 13:35:04;;;;;;;8.03;4.20;;;17.30;49.20;;;;;;5017322;28;20464;-70
2022/04/19 13:40:21;;;;;;;10.87;4.97;;;17.40;49.20;;;;;;5013169;28;21367;-70
2022/04/19 13:42:51;;;;;;;6.70;3.13;;;17.40;49.30;;;;;;5011397;28;20488;-70
2022/04/19 13:45:19;;;;;;;7.97;3.67;;;17.50;49.50;;;;;;5013717;28;20483;-70
2022/04/19 13:47:47;;;;;;;9.13;5.30;;;17.50;49.50;;;;;;5014894;28;20487;-70
2022/04/19 13:50:15;;;;;;;5.07;2.50;;;17.60;49.50;;;;;;5015805;28;20451;-70
2022/04/19 13:52:43;;;;;;;6.20;2.73;;;17.60;49.30;;;;;;5014537;28;20440;-70
2022/04/19 13:55:18;;;;;;;6.90;2.87;;;17.60;49.50;;;;;;5016058;28;20461;-70